Terminal Aerodrome Forecast
Issued by NWS

Home | Current Version | Previous Version | Text Only | Print | Product List | Glossary On
Versions: 1 2 3 4 5 6 7 8 9 10 11 12 13 14 15 16 17 18
000
FTAK31 PAJN 281100
TAFAYA
TAF
PAYA 281128Z 2812/2912 00000KT 4SM -SHRA BR BKN040 OVC080
      TEMPO 2812/2815 2SM -SHRA BR SCT020 OVC040
     FM281500 VRB03KT P6SM -SHRA SCT015 BKN025 OVC050
     FM281800 VRB04KT P6SM -SHRA SCT012 OVC025
     FM282100 12008KT P6SM -SHRA BKN008 OVC020
     FM290000 12006KT P6SM -SHRA BKN020 OVC040
     FM290600 VRB03KT P6SM -SHRA SCT015 OVC025
      AMD LTD TO CLD VIS AND WIND 2901/2910=

USA.gov is the U.S. government's official web portal to all federal, state and local government web resources and services.